sensor_id;sensor_type;location;lat;lon;timestamp;P1;durP1;ratioP1;P2;durP2;ratioP2
21941;SDS011;11135;54.192;15.670;2022-08-16T00:05:04;12.93;;;11.73;;
21941;SDS011;11135;54.192;15.670;2022-08-16T00:11:10;13.27;;;12.00;;
21941;SDS011;11135;54.192;15.670;2022-08-16T00:17:18;13.43;;;11.77;;
21941;SDS011;11135;54.192;15.670;2022-08-16T00:23:23;13.57;;;12.27;;
21941;SDS011;11135;54.192;15.670;2022-08-16T00:29:47;12.73;;;11.48;;
21941;SDS011;11135;54.192;15.670;2022-08-16T00:36:12;13.60;;;12.32;;
21941;SDS011;11135;54.192;15.670;2022-08-16T00:42:16;12.85;;;11.73;;
21941;SDS011;11135;54.192;15.670;2022-08-16T00:48:32;13.80;;;12.50;;
21941;SDS011;11135;54.192;15.670;2022-08-16T00:54:47;14.40;;;13.07;;
21941;SDS011;11135;54.192;15.670;2022-08-16T01:00:52;13.88;;;12.52;;
21941;SDS011;11135;54.192;15.670;2022-08-16T01:06:57;13.93;;;12.63;;
21941;SDS011;11135;54.192;15.670;2022-08-16T01:13:05;13.82;;;12.52;;
21941;SDS011;11135;54.192;15.670;2022-08-16T01:19:17;13.93;;;12.63;;
21941;SDS011;11135;54.192;15.670;2022-08-16T01:25:26;14.20;;;12.90;;
21941;SDS011;11135;54.192;15.670;2022-08-16T01:31:37;14.20;;;12.73;;
21941;SDS011;11135;54.192;15.670;2022-08-16T01:37:45;13.50;;;12.10;;
21941;SDS011;11135;54.192;15.670;2022-08-16T01:43:56;13.40;;;12.00;;
21941;SDS011;11135;54.192;15.670;2022-08-16T01:50:02;13.65;;;12.35;;
21941;SDS011;11135;54.192;15.670;2022-08-16T01:56:27;14.55;;;12.55;;
21941;SDS011;11135;54.192;15.670;2022-08-16T02:02:33;13.68;;;12.38;;
21941;SDS011;11135;54.192;15.670;2022-08-16T02:08:43;14.52;;;13.10;;
21941;SDS011;11135;54.192;15.670;2022-08-16T02:14:51;14.13;;;12.82;;
21941;SDS011;11135;54.192;15.670;2022-08-16T02:27:00;14.27;;;12.98;;
21941;SDS011;11135;54.192;15.670;2022-08-16T02:33:06;15.48;;;13.60;;
21941;SDS011;11135;54.192;15.670;2022-08-16T02:39:12;14.68;;;13.35;;
21941;SDS011;11135;54.192;15.670;2022-08-16T02:45:17;14.38;;;12.98;;
21941;SDS011;11135;54.192;15.670;2022-08-16T02:51:25;15.27;;;12.75;;
21941;SDS011;11135;54.192;15.670;2022-08-16T02:57:30;15.43;;;13.93;;
21941;SDS011;11135;54.192;15.670;2022-08-16T03:03:34;13.75;;;12.40;;
21941;SDS011;11135;54.192;15.670;2022-08-16T03:09:59;13.75;;;12.45;;
21941;SDS011;11135;54.192;15.670;2022-08-16T03:16:04;13.70;;;12.40;;
21941;SDS011;11135;54.192;15.670;2022-08-16T03:22:28;14.05;;;12.63;;
21941;SDS011;11135;54.192;15.670;2022-08-16T03:28:32;14.18;;;12.65;;
21941;SDS011;11135;54.192;15.670;2022-08-16T03:40:41;13.65;;;12.35;;
21941;SDS011;11135;54.192;15.670;2022-08-16T03:46:45;13.68;;;11.90;;
21941;SDS011;11135;54.192;15.670;2022-08-16T03:52:52;13.40;;;12.10;;
21941;SDS011;11135;54.192;15.670;2022-08-16T03:59:03;12.93;;;11.63;;
21941;SDS011;11135;54.192;15.670;2022-08-16T04:11:14;12.95;;;11.70;;
21941;SDS011;11135;54.192;15.670;2022-08-16T04:17:18;11.38;;;10.20;;
21941;SDS011;11135;54.192;15.670;2022-08-16T04:23:21;11.57;;;10.55;;
21941;SDS011;11135;54.192;15.670;2022-08-16T04:29:27;12.70;;;11.52;;
21941;SDS011;11135;54.192;15.670;2022-08-16T04:35:47;11.88;;;10.68;;
21941;SDS011;11135;54.192;15.670;2022-08-16T04:41:50;27.67;;;18.30;;
21941;SDS011;11135;54.192;15.670;2022-08-16T04:47:59;14.27;;;12.32;;
21941;SDS011;11135;54.192;15.670;2022-08-16T04:54:03;13.55;;;11.82;;
21941;SDS011;11135;54.192;15.670;2022-08-16T05:00:08;13.15;;;11.18;;
21941;SDS011;11135;54.192;15.670;2022-08-16T05:06:35;13.65;;;11.30;;
21941;SDS011;11135;54.192;15.670;2022-08-16T05:12:46;12.30;;;11.15;;
21941;SDS011;11135;54.192;15.670;2022-08-16T05:18:51;11.93;;;10.70;;
21941;SDS011;11135;54.192;15.670;2022-08-16T05:24:59;11.98;;;10.77;;
21941;SDS011;11135;54.192;15.670;2022-08-16T05:31:10;12.65;;;10.85;;
21941;SDS011;11135;54.192;15.670;2022-08-16T05:43:18;12.63;;;11.30;;
21941;SDS011;11135;54.192;15.670;2022-08-16T05:49:21;12.40;;;10.95;;
21941;SDS011;11135;54.192;15.670;2022-08-16T05:55:40;12.48;;;10.43;;
21941;SDS011;11135;54.192;15.670;2022-08-16T06:07:51;11.77;;;10.57;;
21941;SDS011;11135;54.192;15.670;2022-08-16T06:14:00;13.00;;;11.77;;
21941;SDS011;11135;54.192;15.670;2022-08-16T06:20:05;12.10;;;10.90;;
21941;SDS011;11135;54.192;15.670;2022-08-16T06:26:10;11.48;;;10.40;;
21941;SDS011;11135;54.192;15.670;2022-08-16T06:32:15;13.15;;;11.73;;
21941;SDS011;11135;54.192;15.670;2022-08-16T06:38:30;11.55;;;10.35;;
21941;SDS011;11135;54.192;15.670;2022-08-16T06:44:35;11.80;;;10.60;;
21941;SDS011;11135;54.192;15.670;2022-08-16T06:50:40;12.60;;;10.20;;
21941;SDS011;11135;54.192;15.670;2022-08-16T06:56:48;11.48;;;10.48;;
21941;SDS011;11135;54.192;15.670;2022-08-16T07:02:54;12.82;;;11.50;;
21941;SDS011;11135;54.192;15.670;2022-08-16T07:09:01;14.50;;;11.38;;
21941;SDS011;11135;54.192;15.670;2022-08-16T07:15:12;12.25;;;10.95;;
21941;SDS011;11135;54.192;15.670;2022-08-16T07:21:19;12.75;;;11.45;;
21941;SDS011;11135;54.192;15.670;2022-08-16T07:27:23;13.93;;;11.98;;
21941;SDS011;11135;54.192;15.670;2022-08-16T07:39:51;12.25;;;11.13;;
21941;SDS011;11135;54.192;15.670;2022-08-16T07:45:55;12.50;;;11.25;;
21941;SDS011;11135;54.192;15.670;2022-08-16T07:52:03;12.88;;;11.57;;
21941;SDS011;11135;54.192;15.670;2022-08-16T07:58:21;12.95;;;11.73;;
21941;SDS011;11135;54.192;15.670;2022-08-16T08:04:36;13.95;;;12.65;;
21941;SDS011;11135;54.192;15.670;2022-08-16T08:10:42;14.30;;;12.80;;
21941;SDS011;11135;54.192;15.670;2022-08-16T08:16:48;15.43;;;13.93;;
21941;SDS011;11135;54.192;15.670;2022-08-16T08:22:54;13.73;;;12.23;;
21941;SDS011;11135;54.192;15.670;2022-08-16T08:29:03;15.55;;;14.02;;
21941;SDS011;11135;54.192;15.670;2022-08-16T08:35:09;15.32;;;13.77;;
21941;SDS011;11135;54.192;15.670;2022-08-16T08:41:13;14.90;;;13.43;;
21941;SDS011;11135;54.192;15.670;2022-08-16T08:47:21;15.73;;;14.25;;
21941;SDS011;11135;54.192;15.670;2022-08-16T08:53:26;15.82;;;14.30;;
21941;SDS011;11135;54.192;15.670;2022-08-16T08:59:31;14.98;;;13.43;;
21941;SDS011;11135;54.192;15.670;2022-08-16T09:05:43;15.88;;;14.25;;
21941;SDS011;11135;54.192;15.670;2022-08-16T09:11:53;15.48;;;13.95;;
21941;SDS011;11135;54.192;15.670;2022-08-16T09:18:07;15.27;;;13.77;;
21941;SDS011;11135;54.192;15.670;2022-08-16T09:24:29;16.35;;;14.80;;
21941;SDS011;11135;54.192;15.670;2022-08-16T09:30:53;15.55;;;14.05;;
21941;SDS011;11135;54.192;15.670;2022-08-16T09:36:58;15.80;;;14.32;;
21941;SDS011;11135;54.192;15.670;2022-08-16T09:43:03;15.77;;;14.02;;
21941;SDS011;11135;54.192;15.670;2022-08-16T09:49:07;16.10;;;14.60;;
21941;SDS011;11135;54.192;15.670;2022-08-16T09:55:12;16.15;;;14.45;;
21941;SDS011;11135;54.192;15.670;2022-08-16T10:01:18;16.15;;;13.32;;
21941;SDS011;11135;54.192;15.670;2022-08-16T10:07:24;15.18;;;13.63;;
21941;SDS011;11135;54.192;15.670;2022-08-16T10:13:45;16.17;;;13.73;;
21941;SDS011;11135;54.192;15.670;2022-08-16T10:19:51;15.13;;;13.70;;
21941;SDS011;11135;54.192;15.670;2022-08-16T10:25:57;16.50;;;15.02;;
21941;SDS011;11135;54.192;15.670;2022-08-16T10:32:20;15.63;;;14.05;;
21941;SDS011;11135;54.192;15.670;2022-08-16T10:38:25;14.20;;;12.90;;
21941;SDS011;11135;54.192;15.670;2022-08-16T10:44:29;14.38;;;13.07;;
21941;SDS011;11135;54.192;15.670;2022-08-16T10:50:33;15.10;;;13.60;;
21941;SDS011;11135;54.192;15.670;2022-08-16T10:56:38;14.88;;;13.55;;
21941;SDS011;11135;54.192;15.670;2022-08-16T11:02:57;15.95;;;14.30;;
21941;SDS011;11135;54.192;15.670;2022-08-16T11:09:02;14.90;;;13.40;;
21941;SDS011;11135;54.192;15.670;2022-08-16T11:21:35;16.02;;;14.43;;
21941;SDS011;11135;54.192;15.670;2022-08-16T11:27:58;15.88;;;14.38;;
21941;SDS011;11135;54.192;15.670;2022-08-16T11:34:05;15.27;;;13.77;;
21941;SDS011;11135;54.192;15.670;2022-08-16T11:40:09;15.75;;;14.25;;
21941;SDS011;11135;54.192;15.670;2022-08-16T11:46:15;16.02;;;14.50;;
21941;SDS011;11135;54.192;15.670;2022-08-16T11:52:42;14.70;;;13.18;;
21941;SDS011;11135;54.192;15.670;2022-08-16T11:58:47;16.38;;;14.80;;
21941;SDS011;11135;54.192;15.670;2022-08-16T12:04:57;15.30;;;13.77;;
21941;SDS011;11135;54.192;15.670;2022-08-16T12:11:03;14.80;;;13.40;;
21941;SDS011;11135;54.192;15.670;2022-08-16T12:17:07;14.48;;;12.98;;
21941;SDS011;11135;54.192;15.670;2022-08-16T12:23:11;14.23;;;12.82;;
21941;SDS011;11135;54.192;15.670;2022-08-16T12:29:19;13.50;;;12.20;;
21941;SDS011;11135;54.192;15.670;2022-08-16T12:35:27;13.95;;;12.52;;
21941;SDS011;11135;54.192;15.670;2022-08-16T12:41:38;13.63;;;12.18;;
21941;SDS011;11135;54.192;15.670;2022-08-16T12:47:47;13.20;;;12.00;;
21941;SDS011;11135;54.192;15.670;2022-08-16T12:54:28;12.57;;;11.43;;
21941;SDS011;11135;54.192;15.670;2022-08-16T13:00:32;12.65;;;11.35;;
21941;SDS011;11135;54.192;15.670;2022-08-16T13:06:42;13.02;;;11.73;;
21941;SDS011;11135;54.192;15.670;2022-08-16T13:12:46;11.82;;;10.73;;
21941;SDS011;11135;54.192;15.670;2022-08-16T13:18:54;11.70;;;10.60;;
21941;SDS011;11135;54.192;15.670;2022-08-16T13:24:59;11.52;;;10.40;;
21941;SDS011;11135;54.192;15.670;2022-08-16T13:31:03;11.68;;;10.55;;
21941;SDS011;11135;54.192;15.670;2022-08-16T13:37:08;11.48;;;10.32;;
21941;SDS011;11135;54.192;15.670;2022-08-16T13:43:16;11.20;;;10.20;;
21941;SDS011;11135;54.192;15.670;2022-08-16T13:49:20;11.18;;;10.07;;
21941;SDS011;11135;54.192;15.670;2022-08-16T13:55:24;11.23;;;10.23;;
21941;SDS011;11135;54.192;15.670;2022-08-16T14:01:31;11.45;;;10.35;;
21941;SDS011;11135;54.192;15.670;2022-08-16T14:07:38;10.65;;;9.57;;
21941;SDS011;11135;54.192;15.670;2022-08-16T14:13:43;10.93;;;9.93;;
21941;SDS011;11135;54.192;15.670;2022-08-16T14:19:48;11.10;;;9.95;;
21941;SDS011;11135;54.192;15.670;2022-08-16T14:25:52;9.82;;;8.90;;
21941;SDS011;11135;54.192;15.670;2022-08-16T14:31:58;10.70;;;9.80;;
21941;SDS011;11135;54.192;15.670;2022-08-16T14:38:03;12.23;;;8.85;;
21941;SDS011;11135;54.192;15.670;2022-08-16T14:44:07;11.15;;;10.15;;
21941;SDS011;11135;54.192;15.670;2022-08-16T14:50:12;10.30;;;9.40;;
21941;SDS011;11135;54.192;15.670;2022-08-16T14:56:20;10.00;;;9.10;;
21941;SDS011;11135;54.192;15.670;2022-08-16T15:02:46;10.10;;;9.13;;
21941;SDS011;11135;54.192;15.670;2022-08-16T15:08:55;10.02;;;9.02;;
21941;SDS011;11135;54.192;15.670;2022-08-16T15:15:00;9.88;;;8.88;;
21941;SDS011;11135;54.192;15.670;2022-08-16T15:21:14;9.23;;;8.32;;
21941;SDS011;11135;54.192;15.670;2022-08-16T15:27:18;10.70;;;9.70;;
21941;SDS011;11135;54.192;15.670;2022-08-16T15:33:23;9.20;;;8.35;;
21941;SDS011;11135;54.192;15.670;2022-08-16T15:39:26;9.48;;;8.57;;
21941;SDS011;11135;54.192;15.670;2022-08-16T15:45:40;9.73;;;8.82;;
21941;SDS011;11135;54.192;15.670;2022-08-16T15:52:07;10.38;;;8.55;;
21941;SDS011;11135;54.192;15.670;2022-08-16T15:58:13;8.73;;;7.93;;
21941;SDS011;11135;54.192;15.670;2022-08-16T16:04:36;9.13;;;8.32;;
21941;SDS011;11135;54.192;15.670;2022-08-16T16:10:44;8.30;;;7.57;;
21941;SDS011;11135;54.192;15.670;2022-08-16T16:16:55;8.65;;;7.80;;
21941;SDS011;11135;54.192;15.670;2022-08-16T16:23:04;8.38;;;7.60;;
21941;SDS011;11135;54.192;15.670;2022-08-16T16:29:13;9.40;;;8.40;;
21941;SDS011;11135;54.192;15.670;2022-08-16T16:35:16;9.13;;;7.80;;
21941;SDS011;11135;54.192;15.670;2022-08-16T16:41:26;9.30;;;7.82;;
21941;SDS011;11135;54.192;15.670;2022-08-16T16:47:33;8.38;;;7.57;;
21941;SDS011;11135;54.192;15.670;2022-08-16T16:53:45;9.27;;;8.38;;
21941;SDS011;11135;54.192;15.670;2022-08-16T16:59:57;7.97;;;7.18;;
21941;SDS011;11135;54.192;15.670;2022-08-16T17:06:06;8.35;;;7.60;;
21941;SDS011;11135;54.192;15.670;2022-08-16T17:12:12;7.93;;;7.13;;
21941;SDS011;11135;54.192;15.670;2022-08-16T17:18:36;8.77;;;7.50;;
21941;SDS011;11135;54.192;15.670;2022-08-16T17:25:01;9.90;;;8.80;;
21941;SDS011;11135;54.192;15.670;2022-08-16T17:31:08;11.02;;;8.10;;
21941;SDS011;11135;54.192;15.670;2022-08-16T17:37:17;10.20;;;8.88;;
21941;SDS011;11135;54.192;15.670;2022-08-16T17:43:45;11.27;;;9.02;;
21941;SDS011;11135;54.192;15.670;2022-08-16T17:49:49;10.00;;;9.00;;
21941;SDS011;11135;54.192;15.670;2022-08-16T17:55:53;10.10;;;9.10;;
21941;SDS011;11135;54.192;15.670;2022-08-16T18:01:59;10.57;;;9.15;;
21941;SDS011;11135;54.192;15.670;2022-08-16T18:08:23;10.70;;;9.70;;
21941;SDS011;11135;54.192;15.670;2022-08-16T18:14:31;9.65;;;8.73;;
21941;SDS011;11135;54.192;15.670;2022-08-16T18:20:56;9.02;;;8.13;;
21941;SDS011;11135;54.192;15.670;2022-08-16T18:27:31;9.88;;;8.60;;
21941;SDS011;11135;54.192;15.670;2022-08-16T18:33:37;8.75;;;7.90;;
21941;SDS011;11135;54.192;15.670;2022-08-16T18:39:46;9.27;;;8.38;;
21941;SDS011;11135;54.192;15.670;2022-08-16T18:45:51;9.27;;;8.35;;
21941;SDS011;11135;54.192;15.670;2022-08-16T18:51:57;9.10;;;8.13;;
21941;SDS011;11135;54.192;15.670;2022-08-16T18:58:05;9.77;;;7.97;;
21941;SDS011;11135;54.192;15.670;2022-08-16T19:04:09;9.73;;;8.32;;
21941;SDS011;11135;54.192;15.670;2022-08-16T19:10:33;8.57;;;7.68;;
21941;SDS011;11135;54.192;15.670;2022-08-16T19:16:40;9.48;;;7.47;;
21941;SDS011;11135;54.192;15.670;2022-08-16T19:22:45;8.80;;;8.00;;
21941;SDS011;11135;54.192;15.670;2022-08-16T19:29:06;8.35;;;7.55;;
21941;SDS011;11135;54.192;15.670;2022-08-16T19:35:12;9.35;;;7.57;;
21941;SDS011;11135;54.192;15.670;2022-08-16T19:41:18;8.48;;;7.65;;
21941;SDS011;11135;54.192;15.670;2022-08-16T19:47:21;8.40;;;7.60;;
21941;SDS011;11135;54.192;15.670;2022-08-16T19:53:27;10.05;;;8.23;;
21941;SDS011;11135;54.192;15.670;2022-08-16T19:59:31;9.07;;;8.25;;
21941;SDS011;11135;54.192;15.670;2022-08-16T20:05:41;9.20;;;8.23;;
21941;SDS011;11135;54.192;15.670;2022-08-16T20:11:48;9.32;;;8.43;;
21941;SDS011;11135;54.192;15.670;2022-08-16T20:17:56;8.70;;;7.80;;
21941;SDS011;11135;54.192;15.670;2022-08-16T20:24:01;9.82;;;8.85;;
21941;SDS011;11135;54.192;15.670;2022-08-16T20:30:27;10.20;;;8.73;;
21941;SDS011;11135;54.192;15.670;2022-08-16T20:36:30;9.45;;;8.55;;
21941;SDS011;11135;54.192;15.670;2022-08-16T20:42:34;10.50;;;9.45;;
21941;SDS011;11135;54.192;15.670;2022-08-16T20:48:39;10.90;;;9.85;;
21941;SDS011;11135;54.192;15.670;2022-08-16T20:54:45;10.95;;;9.85;;
21941;SDS011;11135;54.192;15.670;2022-08-16T21:00:49;10.52;;;9.38;;
21941;SDS011;11135;54.192;15.670;2022-08-16T21:06:55;11.00;;;9.25;;
21941;SDS011;11135;54.192;15.670;2022-08-16T21:12:59;10.90;;;9.80;;
21941;SDS011;11135;54.192;15.670;2022-08-16T21:19:04;10.75;;;9.65;;
21941;SDS011;11135;54.192;15.670;2022-08-16T21:25:10;9.73;;;8.82;;
21941;SDS011;11135;54.192;15.670;2022-08-16T21:31:23;10.68;;;9.50;;
21941;SDS011;11135;54.192;15.670;2022-08-16T21:37:27;11.48;;;10.02;;
21941;SDS011;11135;54.192;15.670;2022-08-16T21:43:32;10.75;;;9.70;;
21941;SDS011;11135;54.192;15.670;2022-08-16T21:49:37;12.52;;;11.23;;
21941;SDS011;11135;54.192;15.670;2022-08-16T21:55:42;11.85;;;10.65;;
21941;SDS011;11135;54.192;15.670;2022-08-16T22:01:48;11.50;;;10.10;;
21941;SDS011;11135;54.192;15.670;2022-08-16T22:07:52;10.50;;;9.55;;
21941;SDS011;11135;54.192;15.670;2022-08-16T22:14:02;11.73;;;10.63;;
21941;SDS011;11135;54.192;15.670;2022-08-16T22:20:08;12.32;;;11.13;;
21941;SDS011;11135;54.192;15.670;2022-08-16T22:26:12;11.52;;;10.32;;
21941;SDS011;11135;54.192;15.670;2022-08-16T22:32:16;11.27;;;10.27;;
21941;SDS011;11135;54.192;15.670;2022-08-16T22:38:21;11.45;;;10.35;;
21941;SDS011;11135;54.192;15.670;2022-08-16T22:44:46;11.18;;;10.15;;
21941;SDS011;11135;54.192;15.670;2022-08-16T22:50:50;11.52;;;10.32;;
21941;SDS011;11135;54.192;15.670;2022-08-16T22:56:55;12.15;;;10.80;;
21941;SDS011;11135;54.192;15.670;2022-08-16T23:02:59;12.02;;;10.82;;
21941;SDS011;11135;54.192;15.670;2022-08-16T23:09:05;11.55;;;10.45;;
21941;SDS011;11135;54.192;15.670;2022-08-16T23:21:14;12.70;;;11.40;;
21941;SDS011;11135;54.192;15.670;2022-08-16T23:27:19;12.73;;;11.52;;
21941;SDS011;11135;54.192;15.670;2022-08-16T23:33:24;12.05;;;10.95;;
21941;SDS011;11135;54.192;15.670;2022-08-16T23:39:30;13.85;;;11.25;;
21941;SDS011;11135;54.192;15.670;2022-08-16T23:45:34;11.82;;;10.75;;
21941;SDS011;11135;54.192;15.670;2022-08-16T23:51:41;11.80;;;10.70;;
21941;SDS011;11135;54.192;15.670;2022-08-16T23:57:45;12.20;;;11.13;;
